Time;durP1;ratioP1;P1;durP2;ratioP2;P2;SDS_P1;SDS_P2;PMS_P1;PMS_P2;Temp;Humidity;BMP_temperature;BMP_pressure;BME280_temperature;BME280_humidity;BME280_pressure;Samples;Min_cycle;Max_cycle;Signal;HPM_P1;HPM_P2
2022/12/21 00:01:32;;;;;;;0.98;0.65;;;21.70;55.40;;;;;;5050161;28;20191;-40
2022/12/21 00:04:04;;;;;;;1.10;0.80;;;21.70;55.40;;;;;;5050153;28;20192;-38
2022/12/21 00:06:36;;;;;;;0.98;0.60;;;21.70;55.40;;;;;;5065340;28;20195;-41
2022/12/21 00:09:08;;;;;;;1.48;0.60;;;21.80;55.40;;;;;;5054531;28;20238;-42
2022/12/21 00:11:39;;;;;;;1.55;0.60;;;21.80;55.30;;;;;;5053228;28;20191;-38
2022/12/21 00:14:12;;;;;;;0.82;0.73;;;21.80;55.30;;;;;;5049541;28;20200;-38
2022/12/21 00:16:44;;;;;;;1.45;0.70;;;21.80;55.30;;;;;;5049621;28;20674;-39
2022/12/21 00:19:16;;;;;;;0.90;0.70;;;21.90;55.30;;;;;;5064193;28;20227;-39
2022/12/21 00:21:46;;;;;;;2.00;0.68;;;21.90;55.20;;;;;;5052303;28;20273;-39
2022/12/21 00:24:17;;;;;;;0.65;0.65;;;21.90;55.10;;;;;;5050181;28;20202;-40
2022/12/21 00:26:48;;;;;;;0.90;0.60;;;21.90;55.00;;;;;;5049739;28;20639;-39
2022/12/21 00:29:20;;;;;;;1.17;0.50;;;21.90;55.10;;;;;;5049502;28;20227;-39
2022/12/21 00:31:51;;;;;;;0.80;0.68;;;21.90;55.00;;;;;;5050249;28;20203;-43
2022/12/21 00:34:22;;;;;;;1.13;0.60;;;22.00;55.00;;;;;;5049726;28;20203;-39
2022/12/21 00:36:54;;;;;;;0.70;0.50;;;22.00;55.00;;;;;;5048976;28;20872;-39
2022/12/21 00:39:25;;;;;;;1.45;0.50;;;22.00;54.90;;;;;;5049214;28;20253;-41
2022/12/21 00:41:56;;;;;;;0.50;0.50;;;22.00;54.80;;;;;;5062268;28;20219;-39
2022/12/21 00:44:28;;;;;;;0.85;0.63;;;22.10;54.90;;;;;;5049643;28;20199;-41
2022/12/21 00:46:59;;;;;;;0.77;0.60;;;22.10;54.80;;;;;;5066686;28;20763;-45
2022/12/21 00:49:30;;;;;;;0.50;0.50;;;22.10;54.80;;;;;;5069736;28;20732;-40
2022/12/21 00:52:00;;;;;;;1.02;0.80;;;22.10;54.70;;;;;;5066306;28;20196;-39
2022/12/21 00:54:31;;;;;;;0.55;0.40;;;22.10;54.60;;;;;;5049989;28;20211;-38
2022/12/21 00:57:01;;;;;;;0.57;0.45;;;22.20;54.70;;;;;;5050253;28;20594;-44
2022/12/21 00:59:34;;;;;;;1.27;0.65;;;22.10;54.40;;;;;;5049893;28;20224;-38
2022/12/21 01:02:05;;;;;;;0.60;0.50;;;22.20;54.40;;;;;;5048950;28;20203;-44
2022/12/21 01:04:35;;;;;;;1.20;0.50;;;22.20;54.50;;;;;;5049364;28;20563;-46
2022/12/21 01:07:06;;;;;;;0.80;0.60;;;22.20;54.50;;;;;;5066591;28;20195;-38
2022/12/21 01:09:37;;;;;;;1.40;0.73;;;22.20;54.40;;;;;;5069265;28;20686;-38
2022/12/21 01:12:08;;;;;;;1.08;0.60;;;22.20;54.40;;;;;;5051883;28;20219;-38
2022/12/21 01:14:40;;;;;;;1.38;0.60;;;22.30;54.30;;;;;;5050290;28;20203;-41
2022/12/21 01:17:11;;;;;;;0.60;0.50;;;22.30;54.20;;;;;;5054079;28;20196;-39
2022/12/21 01:19:41;;;;;;;1.20;0.68;;;22.30;54.20;;;;;;5049657;28;20215;-38
2022/12/21 01:22:12;;;;;;;0.93;0.70;;;22.30;54.20;;;;;;5063274;28;20200;-38
2022/12/21 01:24:43;;;;;;;1.20;0.57;;;22.30;54.20;;;;;;5068716;28;20768;-39
2022/12/21 01:27:14;;;;;;;0.90;0.60;;;22.40;54.20;;;;;;5051694;28;20192;-39
2022/12/21 01:29:46;;;;;;;1.83;0.82;;;22.40;54.00;;;;;;5049456;28;20223;-38
2022/12/21 01:32:17;;;;;;;0.57;0.50;;;22.40;54.00;;;;;;5062005;28;20202;-38
2022/12/21 01:34:48;;;;;;;1.98;0.60;;;22.40;53.80;;;;;;5069593;28;20198;-42
2022/12/21 01:37:18;;;;;;;0.80;0.57;;;22.40;53.90;;;;;;5052045;28;20207;-39
2022/12/21 01:39:49;;;;;;;0.43;0.40;;;22.40;54.00;;;;;;5066724;28;20214;-43
2022/12/21 01:42:20;;;;;;;1.30;0.57;;;22.40;54.00;;;;;;5051782;28;20199;-41
2022/12/21 01:45:04;;;;;;;0.60;0.60;;;22.40;54.00;;;;;;5049590;28;20210;-44
2022/12/21 01:47:42;;;;;;;1.00;0.73;;;22.50;54.00;;;;;;5049710;28;20316;-38
2022/12/21 01:50:30;;;;;;;1.67;0.65;;;22.50;53.80;;;;;;5048889;28;20699;-38
2022/12/21 01:53:04;;;;;;;0.95;0.50;;;22.50;53.70;;;;;;5048263;28;20202;-38
2022/12/21 01:55:35;;;;;;;1.20;0.80;;;22.60;53.60;;;;;;5048543;28;20206;-44
2022/12/21 01:58:08;;;;;;;1.40;0.63;;;22.60;53.80;;;;;;5048754;28;20195;-46
2022/12/21 02:00:42;;;;;;;1.05;0.68;;;22.60;53.70;;;;;;5048943;28;21383;-43
2022/12/21 02:03:16;;;;;;;0.90;0.50;;;22.60;53.50;;;;;;5054671;28;20191;-40
2022/12/21 02:05:51;;;;;;;0.45;0.40;;;22.60;53.50;;;;;;5055681;28;20191;-41
2022/12/21 02:08:22;;;;;;;0.57;0.57;;;22.60;53.60;;;;;;5072398;28;20209;-41
2022/12/21 02:10:54;;;;;;;0.50;0.50;;;22.60;53.50;;;;;;5069228;28;20219;-39
2022/12/21 02:13:25;;;;;;;0.43;0.43;;;22.70;53.50;;;;;;5052539;28;20210;-38
2022/12/21 02:16:24;;;;;;;0.73;0.50;;;22.70;53.50;;;;;;5056280;28;20213;-38
2022/12/21 02:19:24;;;;;;;0.52;0.47;;;22.70;53.50;;;;;;5071306;28;20210;-44
2022/12/21 02:21:57;;;;;;;0.52;0.50;;;22.70;53.50;;;;;;5060051;28;20234;-39
2022/12/21 02:25:02;;;;;;;1.02;0.60;;;22.80;53.50;;;;;;5057867;28;20196;-38
2022/12/21 02:28:05;;;;;;;0.73;0.50;;;22.80;53.50;;;;;;5068458;28;20252;-38
2022/12/21 02:31:07;;;;;;;0.75;0.50;;;22.80;53.50;;;;;;5043372;28;20253;-38
2022/12/21 02:33:53;;;;;;;0.65;0.55;;;22.80;53.50;;;;;;4998726;28;20195;-39
2022/12/21 02:36:32;;;;;;;0.80;0.40;;;22.80;53.10;;;;;;5060022;28;20201;-39
2022/12/21 02:39:12;;;;;;;0.60;0.60;;;22.80;53.00;;;;;;5061495;28;20195;-38
2022/12/21 02:42:02;;;;;;;0.50;0.50;;;22.80;53.00;;;;;;5060831;28;20228;-43
2022/12/21 02:44:48;;;;;;;0.85;0.60;;;22.90;53.00;;;;;;5072338;28;20213;-39
2022/12/21 02:47:24;;;;;;;0.93;0.60;;;22.90;52.80;;;;;;5072203;28;20217;-38
2022/12/21 02:50:02;;;;;;;0.80;0.60;;;22.90;52.70;;;;;;5072056;28;20226;-41
2022/12/21 02:52:38;;;;;;;1.17;0.60;;;22.90;52.90;;;;;;5063455;28;20202;-38
2022/12/21 02:55:11;;;;;;;0.47;0.35;;;22.90;52.70;;;;;;5052160;28;20187;-38
2022/12/21 02:57:44;;;;;;;0.70;0.52;;;22.90;52.80;;;;;;5054043;28;20204;-42
2022/12/21 03:00:17;;;;;;;1.10;0.60;;;22.90;52.80;;;;;;5051661;28;20231;-38
2022/12/21 03:06:16;;;;;;;1.20;0.60;;;22.90;52.80;;;;;;5071486;28;20189;-45
2022/12/21 03:09:02;;;;;;;0.88;0.50;;;22.90;52.60;;;;;;5070914;28;20662;-39
2022/12/21 03:11:43;;;;;;;0.70;0.50;;;23.00;52.60;;;;;;5071153;28;20206;-39
2022/12/21 03:14:21;;;;;;;1.20;0.50;;;23.00;52.60;;;;;;5069349;28;20187;-43
2022/12/21 03:16:53;;;;;;;2.33;0.57;;;23.00;52.60;;;;;;5061198;28;20196;-38
2022/12/21 03:19:33;;;;;;;0.60;0.60;;;23.00;52.60;;;;;;5051185;28;20215;-38
2022/12/21 03:22:06;;;;;;;0.52;0.50;;;22.90;52.60;;;;;;5058186;28;20210;-40
2022/12/21 03:24:42;;;;;;;2.42;0.75;;;23.00;52.70;;;;;;5051475;28;20200;-38
2022/12/21 03:27:17;;;;;;;2.05;0.70;;;22.90;52.70;;;;;;5051496;28;20819;-39
2022/12/21 03:29:52;;;;;;;0.60;0.60;;;23.00;52.70;;;;;;5050426;28;20238;-38
2022/12/21 03:32:32;;;;;;;1.40;0.60;;;23.00;52.60;;;;;;5051670;28;20207;-38
2022/12/21 03:35:09;;;;;;;1.27;0.60;;;22.90;52.60;;;;;;5030948;28;20196;-38
2022/12/21 03:37:43;;;;;;;1.08;0.60;;;23.00;52.60;;;;;;5060038;28;20198;-39
2022/12/21 03:40:19;;;;;;;0.95;0.50;;;23.00;52.60;;;;;;5066168;28;20223;-41
2022/12/21 03:42:53;;;;;;;1.40;0.65;;;23.00;52.50;;;;;;5050132;28;20203;-43
2022/12/21 03:45:28;;;;;;;0.88;0.50;;;23.00;52.50;;;;;;5050720;28;20199;-38
2022/12/21 03:48:07;;;;;;;1.85;0.50;;;23.00;52.50;;;;;;5051157;28;20203;-39
2022/12/21 03:50:43;;;;;;;1.90;0.77;;;23.00;52.50;;;;;;5050162;28;20218;-41
2022/12/21 03:53:23;;;;;;;0.85;0.50;;;23.00;52.50;;;;;;5050129;28;20239;-41
2022/12/21 03:55:58;;;;;;;1.10;0.50;;;23.00;52.50;;;;;;5050497;28;20273;-38
2022/12/21 03:58:29;;;;;;;0.57;0.50;;;23.00;52.50;;;;;;5050037;28;20198;-38
2022/12/21 04:01:14;;;;;;;1.20;0.50;;;23.00;52.60;;;;;;5050854;28;20223;-39
2022/12/21 04:03:48;;;;;;;1.00;0.50;;;22.90;52.50;;;;;;5050661;28;20651;-39
2022/12/21 04:06:24;;;;;;;0.98;0.52;;;23.00;52.60;;;;;;5050805;28;20194;-39
2022/12/21 04:14:24;;;;;;;1.38;0.60;;;23.00;52.40;;;;;;5090467;28;20213;-50
2022/12/21 04:16:55;;;;;;;1.45;0.70;;;23.00;52.40;;;;;;5090724;28;20206;-53
2022/12/21 04:28:06;;;;;;;1.98;0.65;;;23.00;52.30;;;;;;5077157;28;20247;-51
2022/12/21 04:28:11;;;;;;;1.27;0.60;;;23.00;52.10;;;;;;5071096;28;20198;-52
2022/12/21 04:30:43;;;;;;;0.95;0.60;;;23.00;52.20;;;;;;5070835;28;20234;-55
2022/12/21 04:33:16;;;;;;;1.35;0.60;;;23.00;52.00;;;;;;5084390;28;20186;-53
2022/12/21 04:38:33;;;;;;;1.85;0.70;;;23.00;52.00;;;;;;5067300;28;20197;-50
2022/12/21 04:41:04;;;;;;;1.38;0.73;;;22.90;52.10;;;;;;5090709;28;20222;-53
2022/12/21 04:43:37;;;;;;;0.80;0.70;;;23.00;52.10;;;;;;5083748;28;20198;-54
2022/12/21 04:46:10;;;;;;;0.93;0.57;;;22.90;52.20;;;;;;5071274;28;20191;-53
2022/12/21 04:48:40;;;;;;;1.83;0.80;;;23.00;52.20;;;;;;5070237;28;20191;-50
2022/12/21 04:51:12;;;;;;;1.70;0.60;;;22.90;52.20;;;;;;5090211;28;20247;-57
2022/12/21 04:53:45;;;;;;;1.08;0.60;;;23.00;52.20;;;;;;5072058;28;20194;-54
2022/12/21 04:56:16;;;;;;;1.00;0.70;;;22.90;52.10;;;;;;5070232;28;20225;-54
2022/12/21 04:58:47;;;;;;;1.40;0.73;;;23.00;52.20;;;;;;5070477;28;20209;-49
2022/12/21 05:01:19;;;;;;;1.80;0.70;;;22.90;52.10;;;;;;5073904;28;20218;-51
2022/12/21 05:03:50;;;;;;;2.80;0.80;;;22.90;52.10;;;;;;5089786;28;20194;-53
2022/12/21 05:06:22;;;;;;;0.80;0.60;;;22.90;52.10;;;;;;5089145;28;20205;-56
2022/12/21 05:11:32;;;;;;;2.53;0.70;;;22.90;52.60;;;;;;5027360;28;20263;-39
2022/12/21 05:14:02;;;;;;;1.42;0.82;;;22.90;52.10;;;;;;5049299;28;20203;-39
2022/12/21 05:16:33;;;;;;;1.33;0.70;;;22.90;52.00;;;;;;5049447;28;20206;-39
2022/12/21 05:19:04;;;;;;;1.83;0.85;;;22.90;52.10;;;;;;5049500;28;20195;-40
2022/12/21 05:21:34;;;;;;;1.35;0.95;;;22.90;52.00;;;;;;5049341;28;20206;-43
2022/12/21 05:24:07;;;;;;;2.17;0.70;;;22.90;52.00;;;;;;5048669;28;20203;-43
2022/12/21 05:26:38;;;;;;;1.13;0.75;;;22.90;52.00;;;;;;5049445;28;20199;-48
2022/12/21 05:29:09;;;;;;;1.70;0.68;;;22.90;52.00;;;;;;5049353;28;20218;-40
2022/12/21 05:31:39;;;;;;;1.20;0.60;;;22.90;52.10;;;;;;5048704;28;20230;-39
2022/12/21 05:34:10;;;;;;;1.85;0.65;;;22.90;52.10;;;;;;5048783;28;20226;-41
2022/12/21 05:36:41;;;;;;;1.17;0.60;;;22.90;52.10;;;;;;5050020;28;20202;-42
2022/12/21 05:39:13;;;;;;;1.80;0.70;;;22.90;52.10;;;;;;5052550;28;20192;-45
2022/12/21 05:41:44;;;;;;;1.42;0.68;;;22.90;52.10;;;;;;5053628;28;20215;-40
2022/12/21 05:44:15;;;;;;;1.50;0.75;;;22.90;52.20;;;;;;5043688;28;20196;-42
2022/12/21 05:46:45;;;;;;;1.55;0.90;;;22.80;52.10;;;;;;5041286;28;20675;-40
2022/12/21 05:49:16;;;;;;;2.00;0.95;;;22.80;52.20;;;;;;5042138;28;20191;-40
2022/12/21 05:51:49;;;;;;;1.73;1.00;;;22.80;52.20;;;;;;5050807;28;20422;-40
2022/12/21 05:54:23;;;;;;;2.63;1.10;;;22.80;52.30;;;;;;5053140;28;20696;-40
2022/12/21 05:56:53;;;;;;;3.47;1.20;;;22.80;52.30;;;;;;5053155;28;20192;-40
2022/12/21 05:59:24;;;;;;;2.95;1.20;;;22.80;52.30;;;;;;5052886;28;20705;-42
2022/12/21 06:01:55;;;;;;;3.17;1.35;;;22.90;52.30;;;;;;5052899;28;20203;-41
2022/12/21 06:04:25;;;;;;;2.85;1.10;;;22.90;52.40;;;;;;5053151;28;20196;-41
2022/12/21 06:06:56;;;;;;;2.85;1.40;;;22.90;52.40;;;;;;5052206;28;20191;-43
2022/12/21 06:09:29;;;;;;;2.22;0.98;;;22.90;52.30;;;;;;5050765;28;20592;-40
2022/12/21 06:11:59;;;;;;;3.67;1.48;;;22.90;52.30;;;;;;5052735;28;20199;-40
2022/12/21 06:14:30;;;;;;;2.05;1.15;;;22.90;52.30;;;;;;5052322;28;20205;-40
2022/12/21 06:17:01;;;;;;;3.42;1.30;;;22.90;52.20;;;;;;5052823;28;20203;-40
2022/12/21 06:19:32;;;;;;;2.33;1.02;;;22.90;52.20;;;;;;5052278;28;20216;-40
2022/12/21 06:22:02;;;;;;;2.65;1.30;;;22.90;52.20;;;;;;5055961;28;20195;-40
2022/12/21 06:24:35;;;;;;;2.17;1.30;;;22.90;52.10;;;;;;5071883;28;20191;-40
2022/12/21 06:27:06;;;;;;;2.45;0.98;;;23.00;52.20;;;;;;5072742;28;20256;-41
2022/12/21 06:29:36;;;;;;;2.17;1.13;;;22.90;52.20;;;;;;5071663;28;20225;-40
2022/12/21 06:32:07;;;;;;;2.78;1.02;;;23.00;52.20;;;;;;5072701;28;20191;-41
2022/12/21 06:34:38;;;;;;;2.28;0.98;;;23.00;52.30;;;;;;5072443;28;20191;-40
2022/12/21 06:37:09;;;;;;;2.42;0.95;;;23.00;52.20;;;;;;5072907;28;20570;-42
2022/12/21 06:39:42;;;;;;;2.28;1.10;;;23.00;52.30;;;;;;5071647;28;20674;-40
2022/12/21 06:42:12;;;;;;;1.98;0.98;;;23.00;52.20;;;;;;5071830;28;20187;-40
2022/12/21 06:44:43;;;;;;;2.38;1.20;;;23.00;52.20;;;;;;5072019;28;20207;-41
2022/12/21 06:47:14;;;;;;;2.85;1.08;;;23.10;52.20;;;;;;5072267;28;20658;-40
2022/12/21 06:49:44;;;;;;;1.70;0.80;;;23.00;52.10;;;;;;5072428;28;20226;-45
2022/12/21 06:52:15;;;;;;;3.63;1.00;;;23.10;52.00;;;;;;5072533;28;20238;-42
2022/12/21 06:54:48;;;;;;;2.88;1.10;;;23.10;51.90;;;;;;5072521;28;20534;-42
2022/12/21 06:57:18;;;;;;;2.70;1.27;;;23.10;51.80;;;;;;5072530;28;20639;-41
2022/12/21 06:59:49;;;;;;;2.47;1.02;;;23.10;51.80;;;;;;5072201;28;20575;-44
2022/12/21 07:02:20;;;;;;;2.10;0.77;;;23.00;51.70;;;;;;5072419;28;20202;-43
2022/12/21 07:04:52;;;;;;;2.90;1.10;;;23.00;51.80;;;;;;5072449;28;20214;-40
2022/12/21 07:07:23;;;;;;;2.58;0.95;;;23.00;51.80;;;;;;5072337;28;20203;-45
2022/12/21 07:09:55;;;;;;;2.05;0.93;;;23.00;51.80;;;;;;5089356;22;20222;-52
2022/12/21 07:12:26;;;;;;;2.40;1.10;;;23.00;51.80;;;;;;5092289;28;20198;-55
2022/12/21 07:14:57;;;;;;;2.50;1.10;;;23.00;51.90;;;;;;5092106;28;20198;-52
2022/12/21 07:17:27;;;;;;;2.80;1.13;;;23.00;51.90;;;;;;5092270;28;20194;-58
2022/12/21 07:19:58;;;;;;;3.28;1.10;;;23.00;51.90;;;;;;5091722;28;20222;-56
2022/12/21 07:22:29;;;;;;;3.88;1.05;;;23.00;51.90;;;;;;5084288;28;20951;-57
2022/12/21 07:25:01;;;;;;;1.58;0.90;;;22.90;51.80;;;;;;5071527;28;20198;-56
2022/12/21 07:27:32;;;;;;;2.70;1.17;;;22.90;51.80;;;;;;5071932;28;20678;-55
2022/12/21 07:30:02;;;;;;;3.45;1.10;;;22.90;51.90;;;;;;5071933;28;20584;-53
2022/12/21 07:32:33;;;;;;;1.48;0.80;;;22.90;51.90;;;;;;5071919;28;20202;-54
2022/12/21 07:35:04;;;;;;;3.97;1.10;;;22.90;51.90;;;;;;5071689;28;20206;-50
2022/12/21 07:37:35;;;;;;;1.70;1.17;;;22.90;52.00;;;;;;5071791;28;20199;-53
2022/12/21 07:40:09;;;;;;;3.03;1.10;;;22.80;51.90;;;;;;5071437;28;20248;-52
2022/12/21 07:42:41;;;;;;;4.40;1.27;;;22.80;52.00;;;;;;5071563;28;20953;-56
2022/12/21 07:45:13;;;;;;;2.45;1.08;;;22.80;52.00;;;;;;5071422;28;20285;-49
2022/12/21 07:47:44;;;;;;;1.23;0.77;;;22.80;52.10;;;;;;5071042;28;20195;-53
2022/12/21 07:50:15;;;;;;;2.65;0.95;;;22.80;52.10;;;;;;5070878;28;20591;-53
2022/12/21 07:52:46;;;;;;;1.65;0.93;;;22.70;52.10;;;;;;5071521;28;20199;-56
2022/12/21 07:55:19;;;;;;;2.47;1.17;;;22.80;52.10;;;;;;5070584;28;20198;-54
2022/12/21 07:57:49;;;;;;;2.58;1.10;;;22.80;52.20;;;;;;5071110;28;20757;-49
2022/12/21 08:00:22;;;;;;;2.17;1.10;;;22.80;52.20;;;;;;5070927;28;20225;-55
2022/12/21 08:02:53;;;;;;;1.35;0.90;;;22.80;52.20;;;;;;5071135;28;20198;-53
2022/12/21 08:05:24;;;;;;;3.42;1.20;;;22.80;52.10;;;;;;5071329;28;20198;-51
2022/12/21 08:07:54;;;;;;;1.40;0.82;;;22.70;52.00;;;;;;5070856;28;20761;-51
2022/12/21 08:10:27;;;;;;;1.95;0.73;;;22.70;52.10;;;;;;5072034;22;20223;-40
2022/12/21 08:12:58;;;;;;;1.80;1.00;;;22.70;52.20;;;;;;5050817;28;20210;-41
2022/12/21 08:15:28;;;;;;;2.03;0.90;;;22.70;52.10;;;;;;5051027;28;20227;-40
2022/12/21 08:17:59;;;;;;;1.65;0.90;;;22.70;52.20;;;;;;5050731;28;20187;-42
2022/12/21 08:20:30;;;;;;;1.17;0.68;;;22.60;52.20;;;;;;5050975;28;20223;-43
2022/12/21 08:23:00;;;;;;;1.80;0.90;;;22.60;52.30;;;;;;5050438;28;20215;-40
2022/12/21 08:25:33;;;;;;;2.58;0.98;;;22.60;52.20;;;;;;5050533;28;20662;-40
2022/12/21 08:28:03;;;;;;;1.77;0.90;;;22.60;52.30;;;;;;5050890;28;20207;-44
2022/12/21 08:30:34;;;;;;;2.97;1.00;;;22.60;52.30;;;;;;5050805;28;20219;-41
2022/12/21 08:33:05;;;;;;;1.98;1.00;;;22.60;52.30;;;;;;5050590;28;20558;-45
2022/12/21 08:35:36;;;;;;;2.50;1.17;;;22.60;52.40;;;;;;5050312;28;20195;-44
2022/12/21 08:38:07;;;;;;;2.45;1.10;;;22.60;52.40;;;;;;5050520;28;20290;-40
2022/12/21 08:40:40;;;;;;;2.95;0.93;;;22.60;52.40;;;;;;5047571;28;20222;-40
2022/12/21 08:43:10;;;;;;;3.15;0.88;;;22.50;52.40;;;;;;5042642;28;20203;-43
2022/12/21 08:45:41;;;;;;;3.80;1.10;;;22.50;52.40;;;;;;5049799;28;20195;-41
2022/12/21 08:48:12;;;;;;;1.48;0.90;;;22.50;52.40;;;;;;5048553;28;20211;-47
2022/12/21 08:50:42;;;;;;;2.75;1.10;;;22.50;52.40;;;;;;5050050;28;20231;-43
2022/12/21 08:53:13;;;;;;;2.72;1.20;;;22.50;52.50;;;;;;5049186;28;20199;-42
2022/12/21 08:55:46;;;;;;;3.60;1.10;;;22.40;52.50;;;;;;5049632;28;20191;-41
2022/12/21 08:58:16;;;;;;;2.03;1.30;;;22.50;52.70;;;;;;5049604;28;20203;-45
2022/12/21 09:00:48;;;;;;;2.25;1.20;;;22.40;52.70;;;;;;5049856;28;20211;-42
2022/12/21 09:03:18;;;;;;;3.60;1.25;;;22.40;52.70;;;;;;5066562;28;20538;-40
2022/12/21 09:05:49;;;;;;;3.20;0.90;;;22.40;52.70;;;;;;5069881;28;20672;-40
2022/12/21 09:08:20;;;;;;;2.28;1.00;;;22.40;52.60;;;;;;5069395;28;20195;-40
2022/12/21 09:10:53;;;;;;;3.75;1.00;;;22.40;52.70;;;;;;5071775;28;20237;-43
2022/12/21 09:13:23;;;;;;;2.22;1.00;;;22.40;52.60;;;;;;5073454;28;20195;-42
2022/12/21 09:15:54;;;;;;;2.88;1.27;;;22.40;52.60;;;;;;5073027;28;20190;-40
2022/12/21 09:18:25;;;;;;;2.60;1.10;;;22.40;52.60;;;;;;5074299;28;20662;-47
2022/12/21 09:20:56;;;;;;;2.03;0.88;;;22.40;52.60;;;;;;5073637;28;20233;-40
2022/12/21 09:23:26;;;;;;;3.28;1.15;;;22.40;52.60;;;;;;5058201;28;20218;-40
2022/12/21 09:25:59;;;;;;;1.65;1.08;;;22.30;52.60;;;;;;5053461;28;20559;-40
2022/12/21 09:28:30;;;;;;;1.00;0.80;;;22.30;52.50;;;;;;5054011;28;20207;-44
2022/12/21 09:31:10;;;;;;;1.60;1.00;;;22.30;52.60;;;;;;5052651;28;20230;-37
2022/12/21 09:33:42;;;;;;;3.42;1.10;;;22.30;52.60;;;;;;5052998;28;20237;-40
2022/12/21 09:36:14;;;;;;;3.20;1.10;;;22.30;52.60;;;;;;5053067;28;20279;-41
2022/12/21 09:38:45;;;;;;;2.58;0.90;;;22.20;52.50;;;;;;5053373;28;20196;-41
2022/12/21 09:41:43;;;;;;;2.30;1.10;;;22.20;52.60;;;;;;5053665;28;20227;-44
2022/12/21 09:44:43;;;;;;;4.32;1.20;;;22.20;52.50;;;;;;5040961;28;20192;-40
2022/12/21 09:47:20;;;;;;;2.55;1.13;;;22.20;52.60;;;;;;5042405;28;20564;-41
2022/12/21 09:50:04;;;;;;;2.33;0.93;;;22.20;52.50;;;;;;5052339;28;20250;-41
2022/12/21 09:52:40;;;;;;;1.67;0.80;;;22.20;52.50;;;;;;5035894;28;20231;-39
2022/12/21 09:55:17;;;;;;;2.08;0.93;;;22.20;52.50;;;;;;5051796;28;20198;-40
2022/12/21 09:57:52;;;;;;;1.70;0.90;;;22.20;52.50;;;;;;5053303;28;20646;-38
2022/12/21 10:00:28;;;;;;;1.65;1.00;;;22.10;52.60;;;;;;5052863;28;20226;-42
2022/12/21 10:03:27;;;;;;;2.15;1.10;;;22.10;52.60;;;;;;5035143;28;20203;-38
2022/12/21 10:06:28;;;;;;;2.03;0.85;;;22.10;52.70;;;;;;5052593;28;20195;-38
2022/12/21 10:09:17;;;;;;;1.88;1.00;;;22.10;52.60;;;;;;5052320;28;20191;-38
2022/12/21 10:12:01;;;;;;;2.47;1.02;;;22.10;52.60;;;;;;5052679;28;20698;-40
2022/12/21 10:14:47;;;;;;;1.00;0.85;;;22.00;52.60;;;;;;5052758;28;20195;-42
2022/12/21 10:17:32;;;;;;;1.85;0.98;;;22.00;52.60;;;;;;5051639;28;20222;-39
2022/12/21 10:20:16;;;;;;;1.75;0.90;;;22.00;52.60;;;;;;5052275;28;20246;-45
2022/12/21 10:22:49;;;;;;;1.10;0.77;;;22.00;52.60;;;;;;5051419;28;20207;-41
2022/12/21 10:25:23;;;;;;;1.55;0.88;;;22.00;52.60;;;;;;5052067;28;20199;-42
2022/12/21 10:27:58;;;;;;;3.28;1.00;;;22.00;52.60;;;;;;5053266;28;20195;-40
2022/12/21 10:30:32;;;;;;;2.05;1.08;;;21.90;52.60;;;;;;5052670;28;20233;-42
2022/12/21 10:33:03;;;;;;;1.67;0.88;;;21.90;52.60;;;;;;5052508;28;20671;-41
2022/12/21 10:35:39;;;;;;;0.73;0.70;;;21.90;52.70;;;;;;5050841;28;20195;-38
2022/12/21 10:38:17;;;;;;;1.65;0.80;;;21.90;52.70;;;;;;5032594;28;20656;-40
2022/12/21 10:40:52;;;;;;;1.20;1.00;;;21.90;52.80;;;;;;5032557;28;20818;-39
2022/12/21 10:43:24;;;;;;;1.67;0.93;;;21.90;52.80;;;;;;5032267;28;20196;-41
2022/12/21 10:45:56;;;;;;;2.28;0.80;;;21.80;52.70;;;;;;5032374;28;20204;-41
2022/12/21 10:48:27;;;;;;;1.48;1.00;;;21.80;52.80;;;;;;5031721;28;20279;-38
2022/12/21 10:51:04;;;;;;;2.17;0.85;;;21.80;52.80;;;;;;5031333;28;20212;-41
2022/12/21 10:53:34;;;;;;;1.38;0.98;;;21.80;52.80;;;;;;5048109;28;20209;-39
2022/12/21 10:56:05;;;;;;;1.90;0.88;;;21.80;52.80;;;;;;5051252;28;20222;-39
2022/12/21 10:58:37;;;;;;;1.73;0.82;;;21.80;52.80;;;;;;5053152;28;20607;-38
2022/12/21 11:01:23;;;;;;;2.47;1.15;;;21.80;52.80;;;;;;5071324;28;20233;-38
2022/12/21 11:04:10;;;;;;;1.10;1.00;;;21.80;52.70;;;;;;5071715;28;20199;-41
2022/12/21 11:06:41;;;;;;;1.52;0.85;;;21.70;52.70;;;;;;5070211;28;20207;-39
2022/12/21 11:09:30;;;;;;;1.08;0.70;;;21.80;52.80;;;;;;5071568;28;20205;-39
2022/12/21 11:12:14;;;;;;;0.95;0.60;;;21.70;52.70;;;;;;5072084;28;20348;-39
2022/12/21 11:14:44;;;;;;;2.22;1.08;;;21.70;52.70;;;;;;5071249;28;20197;-39
2022/12/21 11:17:23;;;;;;;1.70;1.05;;;21.70;52.80;;;;;;5071701;28;20564;-39
2022/12/21 11:19:58;;;;;;;1.38;0.90;;;21.60;52.80;;;;;;5071087;28;20233;-40
2022/12/21 11:22:30;;;;;;;1.50;0.85;;;21.60;52.80;;;;;;5063199;28;20214;-42
2022/12/21 11:25:03;;;;;;;2.00;1.00;;;21.60;52.80;;;;;;5051222;28;20200;-40
2022/12/21 11:27:36;;;;;;;2.03;0.95;;;21.60;52.90;;;;;;5052078;28;20199;-41
2022/12/21 11:30:11;;;;;;;2.22;1.08;;;21.50;52.80;;;;;;5050256;28;20223;-42
2022/12/21 11:32:49;;;;;;;1.85;0.80;;;21.50;52.80;;;;;;5051460;28;20687;-43
2022/12/21 11:35:23;;;;;;;2.15;1.10;;;21.50;52.80;;;;;;5050414;28;20199;-39
2022/12/21 11:37:57;;;;;;;1.17;0.80;;;21.50;52.90;;;;;;5032002;28;20200;-40
2022/12/21 11:40:29;;;;;;;1.13;0.75;;;21.50;52.90;;;;;;5031348;28;20224;-41
2022/12/21 11:43:06;;;;;;;1.60;0.85;;;21.50;52.90;;;;;;5031164;28;20660;-42
2022/12/21 11:45:46;;;;;;;2.20;0.82;;;21.50;52.90;;;;;;5039634;28;20271;-39
2022/12/21 11:48:32;;;;;;;2.28;0.80;;;21.40;52.80;;;;;;5050350;28;20191;-39
2022/12/21 11:51:09;;;;;;;1.55;0.85;;;21.40;52.80;;;;;;5058475;28;20207;-40
2022/12/21 11:53:54;;;;;;;1.33;1.02;;;21.40;52.90;;;;;;5057193;28;20218;-39
2022/12/21 11:56:34;;;;;;;0.93;0.80;;;21.40;52.90;;;;;;5059773;28;20571;-38
2022/12/21 11:59:40;;;;;;;2.80;1.10;;;21.40;53.00;;;;;;5059015;28;20187;-39
2022/12/21 12:02:33;;;;;;;1.30;0.80;;;21.30;53.00;;;;;;5060675;28;20439;-39
2022/12/21 12:05:19;;;;;;;1.35;0.80;;;21.30;53.00;;;;;;5056962;28;20191;-39
2022/12/21 12:08:00;;;;;;;2.22;0.90;;;21.30;53.00;;;;;;5057621;28;20602;-38
2022/12/21 12:11:07;;;;;;;1.58;0.73;;;21.30;53.00;;;;;;5058842;28;20716;-38
2022/12/21 12:14:06;;;;;;;1.48;0.80;;;21.20;53.00;;;;;;5054163;28;20219;-39
2022/12/21 12:16:46;;;;;;;0.95;0.82;;;21.20;53.00;;;;;;5057733;28;20220;-40
2022/12/21 12:19:28;;;;;;;2.20;0.90;;;21.20;53.00;;;;;;5050297;28;20196;-42
2022/12/21 12:22:23;;;;;;;2.15;1.13;;;21.20;53.00;;;;;;5054438;28;20302;-39
2022/12/21 12:25:14;;;;;;;1.38;0.73;;;21.20;53.00;;;;;;5058003;28;20194;-40
2022/12/21 12:28:05;;;;;;;2.00;0.90;;;21.10;53.00;;;;;;5059247;28;20223;-40
2022/12/21 12:30:49;;;;;;;0.88;0.70;;;21.10;53.00;;;;;;5056820;28;20215;-43
2022/12/21 12:33:28;;;;;;;1.55;0.80;;;21.10;53.00;;;;;;5056203;28;20756;-41
2022/12/21 12:36:09;;;;;;;1.42;0.90;;;21.10;53.10;;;;;;5050049;28;20285;-39
2022/12/21 12:38:55;;;;;;;2.22;0.60;;;21.00;53.10;;;;;;5050148;28;20199;-41
2022/12/21 12:41:39;;;;;;;1.88;1.00;;;21.10;53.10;;;;;;5050256;28;20313;-42
2022/12/21 12:44:21;;;;;;;1.85;0.90;;;21.00;53.10;;;;;;5050124;28;20195;-38
2022/12/21 12:47:04;;;;;;;1.95;0.75;;;21.00;53.20;;;;;;5049498;28;20202;-39
2022/12/21 12:50:00;;;;;;;1.60;0.85;;;21.00;53.20;;;;;;5050187;28;20199;-39
2022/12/21 12:52:44;;;;;;;1.52;0.80;;;21.00;53.20;;;;;;5049768;28;20242;-45
2022/12/21 12:55:21;;;;;;;1.30;0.80;;;21.00;53.10;;;;;;5050452;28;20195;-43
2022/12/21 12:57:59;;;;;;;1.65;0.70;;;21.00;53.10;;;;;;5050320;28;20198;-38
2022/12/21 13:00:36;;;;;;;0.80;0.68;;;20.90;53.10;;;;;;5049996;28;20219;-44
2022/12/21 13:03:16;;;;;;;1.42;0.70;;;20.90;53.10;;;;;;5050345;28;20205;-42
2022/12/21 13:05:58;;;;;;;1.48;0.85;;;20.90;53.10;;;;;;5050633;28;20206;-39
2022/12/21 13:08:43;;;;;;;2.00;0.77;;;20.80;53.70;;;;;;5050434;28;20196;-43
2022/12/21 13:11:34;;;;;;;1.48;0.90;;;20.80;53.10;;;;;;5050235;28;20234;-41
2022/12/21 13:14:12;;;;;;;1.58;0.95;;;20.80;53.10;;;;;;5049609;28;20203;-44
2022/12/21 13:16:47;;;;;;;2.75;0.80;;;20.80;53.20;;;;;;5049325;28;20203;-39
2022/12/21 13:19:20;;;;;;;1.08;0.70;;;20.70;53.10;;;;;;5049855;28;20202;-43
2022/12/21 13:21:53;;;;;;;0.88;0.70;;;20.70;53.10;;;;;;5049874;28;20211;-42
2022/12/21 13:24:30;;;;;;;1.52;0.60;;;20.70;53.20;;;;;;5049686;28;20195;-39
2022/12/21 13:27:07;;;;;;;1.25;0.80;;;20.70;53.20;;;;;;5050109;28;20191;-39
2022/12/21 13:29:43;;;;;;;0.98;0.70;;;20.70;53.20;;;;;;5050287;28;20195;-39
2022/12/21 13:32:17;;;;;;;1.05;0.70;;;20.70;53.20;;;;;;5050175;28;20243;-41
2022/12/21 13:34:54;;;;;;;0.98;0.70;;;20.70;53.20;;;;;;5050111;28;20191;-42
2022/12/21 13:37:26;;;;;;;1.20;0.70;;;20.70;53.20;;;;;;5050098;28;20203;-39
2022/12/21 13:40:04;;;;;;;2.35;0.80;;;20.70;53.20;;;;;;5049624;28;20298;-41
2022/12/21 13:42:46;;;;;;;0.75;0.75;;;20.60;53.20;;;;;;5049827;28;20651;-41
2022/12/21 13:45:24;;;;;;;1.48;0.80;;;20.60;53.20;;;;;;5049794;28;20197;-45
2022/12/21 13:47:55;;;;;;;0.88;0.70;;;20.60;53.20;;;;;;5049988;28;20547;-41
2022/12/21 13:50:39;;;;;;;0.88;0.65;;;20.60;53.20;;;;;;5049749;28;20223;-39